createdAt,value
2017-02-26T00:00:17.371Z,100137
2017-02-26T00:01:17.593Z,100136
2017-02-26T00:02:17.526Z,100138
2017-02-26T00:03:17.519Z,100130
2017-02-26T00:04:18.171Z,100129
2017-02-26T00:05:17.643Z,100135
2017-02-26T00:06:17.754Z,100132
2017-02-26T00:07:18.013Z,100129
2017-02-26T00:08:17.886Z,100124
2017-02-26T00:09:18.484Z,100119
2017-02-26T00:10:18.572Z,100130
2017-02-26T00:11:18.646Z,100119
2017-02-26T00:12:18.103Z,100117
2017-02-26T00:13:18.442Z,100120
2017-02-26T00:14:18.242Z,100109
2017-02-26T00:15:18.869Z,100111
2017-02-26T00:16:18.993Z,100109
2017-02-26T00:17:18.427Z,100109
2017-02-26T00:18:19.086Z,100105
2017-02-26T00:19:18.781Z,100099
2017-02-26T00:20:18.635Z,100100
2017-02-26T00:21:18.633Z,100100
2017-02-26T00:22:18.757Z,100107
2017-02-26T00:23:19.324Z,100103
2017-02-26T00:24:18.881Z,100102
2017-02-26T00:25:19.125Z,100103
2017-02-26T00:26:18.965Z,100090
2017-02-26T00:27:18.976Z,100095
2017-02-26T00:28:19.029Z,100091
2017-02-26T00:29:19.651Z,100092
2017-02-26T00:30:19.209Z,100087
2017-02-26T00:31:19.432Z,100086
2017-02-26T00:32:19.343Z,100094
2017-02-26T00:33:19.403Z,100083
2017-02-26T00:34:19.960Z,100091
2017-02-26T00:35:19.551Z,100086
2017-02-26T00:36:20.158Z,100094
2017-02-26T00:37:20.452Z,100094
2017-02-26T00:38:19.598Z,100096
2017-02-26T00:39:19.695Z,100097
2017-02-26T00:40:19.751Z,100092
2017-02-26T00:41:19.808Z,100094
2017-02-26T00:42:20.359Z,100091
2017-02-26T00:43:20.021Z,100089
2017-02-26T00:44:19.923Z,100107
2017-02-26T00:45:20.522Z,100105
2017-02-26T00:46:20.548Z,100100
2017-02-26T00:47:20.019Z,100098
2017-02-26T00:48:20.035Z,100102
2017-02-26T00:49:20.830Z,100092
2017-02-26T00:50:20.163Z,100099
2017-02-26T00:51:20.741Z,100096
2017-02-26T00:52:20.746Z,100105
2017-02-26T00:53:20.841Z,100104
2017-02-26T00:54:20.420Z,100095
2017-02-26T00:55:21.196Z,100088
2017-02-26T00:56:21.066Z,100102
2017-02-26T00:57:21.137Z,100093
2017-02-26T00:58:20.573Z,100103
2017-02-26T00:59:20.582Z,100100
2017-02-26T01:00:21.284Z,100100
2017-02-26T01:01:21.001Z,100105
2017-02-26T01:02:21.354Z,100099
2017-02-26T01:03:21.466Z,100099
2017-02-26T01:04:20.908Z,100098
2017-02-26T01:05:20.980Z,100098
2017-02-26T01:06:21.084Z,100096
2017-02-26T01:07:21.313Z,100092
2017-02-26T01:08:21.189Z,100090
2017-02-26T01:09:21.799Z,100098
2017-02-26T01:10:21.832Z,100087
2017-02-26T01:11:21.317Z,100080
2017-02-26T01:12:21.302Z,100086
2017-02-26T01:13:22.072Z,100081
2017-02-26T01:14:21.924Z,100079
2017-02-26T01:15:21.987Z,100081
2017-02-26T01:16:21.410Z,100081
2017-02-26T01:17:22.043Z,100078
2017-02-26T01:18:21.550Z,100088
2017-02-26T01:19:21.762Z,100080
2017-02-26T01:20:21.734Z,100077
2017-02-26T01:21:21.800Z,100083
2017-02-26T01:22:21.780Z,100077
2017-02-26T01:23:21.874Z,100074
2017-02-26T01:24:22.417Z,100080
2017-02-26T01:25:22.654Z,100077
2017-02-26T01:26:22.513Z,100068
2017-02-26T01:27:22.031Z,100070
2017-02-26T01:28:22.018Z,100070
2017-02-26T01:29:22.686Z,100076
2017-02-26T01:30:22.654Z,100074
2017-02-26T01:31:22.854Z,100075
2017-02-26T01:32:22.113Z,100081
2017-02-26T01:33:22.748Z,100073
2017-02-26T01:34:22.271Z,100072
2017-02-26T01:35:22.349Z,100072
2017-02-26T01:36:22.360Z,100065
2017-02-26T01:37:23.124Z,100067
2017-02-26T01:38:22.945Z,100066
2017-02-26T01:39:22.537Z,100057
2017-02-26T01:40:23.057Z,100053
2017-02-26T01:41:22.652Z,100055
2017-02-26T01:42:22.706Z,100054
2017-02-26T01:43:23.517Z,100066
2017-02-26T01:44:23.305Z,100055
2017-02-26T01:45:22.795Z,100054
2017-02-26T01:46:22.770Z,100063
2017-02-26T01:47:23.437Z,100058
2017-02-26T01:48:22.900Z,100059
2017-02-26T01:49:23.714Z,100056
2017-02-26T01:50:23.003Z,100057
2017-02-26T01:51:23.630Z,100055
2017-02-26T01:52:23.107Z,100058
2017-02-26T01:53:23.138Z,100051
2017-02-26T01:54:23.205Z,100052
2017-02-26T01:55:23.474Z,100053
2017-02-26T01:56:23.811Z,100048
2017-02-26T01:57:23.367Z,100032
2017-02-26T01:58:23.337Z,100035
2017-02-26T01:59:23.411Z,100021
2017-02-26T02:00:23.519Z,100025
2017-02-26T02:01:24.228Z,100026
2017-02-26T02:02:23.539Z,100020
2017-02-26T02:03:24.175Z,100026
2017-02-26T02:04:23.639Z,100030
2017-02-26T02:05:24.150Z,100041
2017-02-26T02:06:24.295Z,100038
2017-02-26T02:07:24.046Z,100042
2017-02-26T02:08:23.831Z,100044
2017-02-26T02:09:23.918Z,100030
2017-02-26T02:10:24.484Z,100033
2017-02-26T02:11:24.504Z,100039
2017-02-26T02:12:24.063Z,100038
2017-02-26T02:13:24.247Z,100033
2017-02-26T02:14:24.697Z,100035
2017-02-26T02:15:24.250Z,100038
2017-02-26T02:16:24.251Z,100033
2017-02-26T02:17:24.240Z,100033
2017-02-26T02:18:24.309Z,100032
2017-02-26T02:19:24.504Z,100027
2017-02-26T02:20:24.896Z,100032
2017-02-26T02:21:24.961Z,100033
2017-02-26T02:22:25.011Z,100033
2017-02-26T02:23:24.546Z,100030
2017-02-26T02:24:24.559Z,100026
2017-02-26T02:25:24.769Z,100029
2017-02-26T02:26:24.638Z,100030
2017-02-26T02:27:25.168Z,100031
2017-02-26T02:28:24.664Z,100030
2017-02-26T02:29:24.766Z,100034
2017-02-26T02:30:24.790Z,100036
2017-02-26T02:31:25.504Z,100031
2017-02-26T02:32:25.887Z,100025
2017-02-26T02:33:24.933Z,100025
2017-02-26T02:34:24.964Z,100020
2017-02-26T02:35:25.585Z,100015
2017-02-26T02:36:25.035Z,100014
2017-02-26T02:37:25.257Z,100015
2017-02-26T02:38:25.667Z,100016
2017-02-26T02:39:25.818Z,100016
2017-02-26T02:40:25.882Z,100013
2017-02-26T02:41:25.880Z,100006
2017-02-26T02:42:25.984Z,100000
2017-02-26T02:43:25.624Z,99997
2017-02-26T02:44:25.553Z,99997
2017-02-26T02:45:25.559Z,100008
2017-02-26T02:46:25.593Z,100013
2017-02-26T02:47:26.268Z,100007
2017-02-26T02:48:26.898Z,100011
2017-02-26T02:49:26.550Z,100004
2017-02-26T02:50:26.467Z,100006
2017-02-26T02:51:26.493Z,100005
2017-02-26T02:52:26.513Z,99994
2017-02-26T02:53:26.528Z,99994
2017-02-26T02:54:26.019Z,99991
2017-02-26T02:55:26.701Z,99986
2017-02-26T02:56:26.166Z,99980
2017-02-26T02:57:26.648Z,99978
2017-02-26T02:58:26.188Z,99984
2017-02-26T02:59:26.256Z,99979
2017-02-26T03:00:26.914Z,99982
2017-02-26T03:01:27.039Z,99971
2017-02-26T03:02:26.949Z,99966
2017-02-26T03:03:26.398Z,99971
2017-02-26T03:04:27.054Z,99971
2017-02-26T03:05:26.631Z,99973
2017-02-26T03:06:27.211Z,99975
2017-02-26T03:07:27.587Z,99972
2017-02-26T03:08:26.833Z,99975
2017-02-26T03:09:27.463Z,99968
2017-02-26T03:10:27.500Z,99963
2017-02-26T03:11:26.890Z,99962
2017-02-26T03:12:27.540Z,99964
2017-02-26T03:13:27.577Z,99965
2017-02-26T03:14:27.032Z,99969
2017-02-26T03:15:27.716Z,99966
2017-02-26T03:16:27.200Z,99964
2017-02-26T03:17:27.829Z,99961
2017-02-26T03:18:27.344Z,99974
2017-02-26T03:19:27.980Z,99971
2017-02-26T03:20:28.057Z,99956
2017-02-26T03:21:27.510Z,99960
2017-02-26T03:22:27.520Z,99955
2017-02-26T03:23:27.577Z,99955
2017-02-26T03:24:28.195Z,99952
2017-02-26T03:25:27.733Z,99947
2017-02-26T03:26:27.737Z,99945
2017-02-26T03:27:28.359Z,99945
2017-02-26T03:28:27.890Z,99940
2017-02-26T03:29:28.398Z,99937
2017-02-26T03:30:28.435Z,99933
2017-02-26T03:31:27.882Z,99930
2017-02-26T03:32:28.002Z,99938
2017-02-26T03:33:28.571Z,99931
2017-02-26T03:34:28.589Z,99936
2017-02-26T03:35:28.594Z,99927
2017-02-26T03:36:28.667Z,99929
2017-02-26T03:37:28.729Z,99933
2017-02-26T03:38:28.252Z,99933
2017-02-26T03:39:28.814Z,99933
2017-02-26T03:40:28.834Z,99929
2017-02-26T03:41:28.916Z,99933
2017-02-26T03:42:28.427Z,99932
2017-02-26T03:43:28.471Z,99930
2017-02-26T03:44:29.066Z,99928
2017-02-26T03:45:29.213Z,99926
2017-02-26T03:46:29.249Z,99924
2017-02-26T03:47:29.310Z,99927
2017-02-26T03:48:28.861Z,99923
2017-02-26T03:49:28.853Z,99921
2017-02-26T03:50:29.006Z,99917
2017-02-26T03:51:29.629Z,99917
2017-02-26T03:52:29.634Z,99919
2017-02-26T03:53:29.172Z,99914
2017-02-26T03:54:29.693Z,99913
2017-02-26T03:55:29.753Z,99925
2017-02-26T03:56:29.226Z,99924
2017-02-26T03:57:29.844Z,99923
2017-02-26T03:58:29.399Z,99924
2017-02-26T03:59:29.928Z,99918
2017-02-26T04:00:29.947Z,99912
2017-02-26T04:01:29.452Z,99914
2017-02-26T04:02:29.506Z,99916
2017-02-26T04:03:30.058Z,99910
2017-02-26T04:04:29.596Z,99902
2017-02-26T04:05:30.180Z,99913
2017-02-26T04:06:30.153Z,99902
2017-02-26T04:07:29.643Z,99910
2017-02-26T04:08:30.289Z,99913
2017-02-26T04:09:30.310Z,99912
2017-02-26T04:10:30.349Z,99913
2017-02-26T04:11:30.406Z,99914
2017-02-26T04:12:30.125Z,99918
2017-02-26T04:13:30.548Z,99911
2017-02-26T04:14:30.622Z,99913
2017-02-26T04:15:30.077Z,99902
2017-02-26T04:16:30.074Z,99900
2017-02-26T04:17:30.150Z,99898
2017-02-26T04:18:30.901Z,99901
2017-02-26T04:19:30.156Z,99903
2017-02-26T04:20:30.755Z,99913
2017-02-26T04:21:30.291Z,99903
2017-02-26T04:22:30.900Z,99900
2017-02-26T04:23:30.433Z,99906
2017-02-26T04:24:30.594Z,99908
2017-02-26T04:25:31.017Z,99910
2017-02-26T04:26:30.496Z,99914
2017-02-26T04:27:31.100Z,99906
2017-02-26T04:28:30.654Z,99906
2017-02-26T04:29:31.214Z,99909
2017-02-26T04:30:31.488Z,99912
2017-02-26T04:31:31.303Z,99910
2017-02-26T04:32:30.827Z,99917
2017-02-26T04:33:31.482Z,99912
2017-02-26T04:34:31.540Z,99910
2017-02-26T04:35:31.091Z,99906
2017-02-26T04:36:31.945Z,99909
2017-02-26T04:37:31.142Z,99904
2017-02-26T04:38:31.201Z,99915
2017-02-26T04:39:31.331Z,99914
2017-02-26T04:40:31.332Z,99912
2017-02-26T04:41:32.011Z,99910
2017-02-26T04:42:32.255Z,99907
2017-02-26T04:43:32.146Z,99913
2017-02-26T04:44:32.153Z,99905
2017-02-26T04:45:31.630Z,99907
2017-02-26T04:46:32.197Z,99909
2017-02-26T04:47:32.273Z,99906
2017-02-26T04:48:32.469Z,99899
2017-02-26T04:49:31.783Z,99905
2017-02-26T04:50:31.880Z,99902
2017-02-26T04:51:31.907Z,99903
2017-02-26T04:52:32.518Z,99897
2017-02-26T04:53:32.170Z,99895
2017-02-26T04:54:32.026Z,99893
2017-02-26T04:55:32.065Z,99898
2017-02-26T04:56:32.657Z,99894
2017-02-26T04:57:32.687Z,99896
2017-02-26T04:58:32.158Z,99895
2017-02-26T04:59:32.442Z,99897
2017-02-26T05:00:32.835Z,99900
2017-02-26T05:01:32.362Z,99902
2017-02-26T05:02:32.392Z,99909
2017-02-26T05:03:33.063Z,99895
2017-02-26T05:04:32.531Z,99903
2017-02-26T05:05:33.296Z,99900
2017-02-26T05:06:33.177Z,99900
2017-02-26T05:07:33.225Z,99884
2017-02-26T05:08:32.702Z,99881
2017-02-26T05:09:33.348Z,99885
2017-02-26T05:10:32.808Z,99883
2017-02-26T05:11:33.031Z,99890
2017-02-26T05:12:33.448Z,99882
2017-02-26T05:13:33.482Z,99884
2017-02-26T05:14:33.571Z,99893
2017-02-26T05:15:33.022Z,99887
2017-02-26T05:16:33.173Z,99880
2017-02-26T05:17:33.973Z,99877
2017-02-26T05:18:33.891Z,99877
2017-02-26T05:19:33.959Z,99878
2017-02-26T05:20:33.416Z,99871
2017-02-26T05:21:34.013Z,99868
2017-02-26T05:22:33.482Z,99883
2017-02-26T05:23:33.619Z,99875
2017-02-26T05:24:33.501Z,99868
2017-02-26T05:25:34.128Z,99868
2017-02-26T05:26:33.579Z,99864
2017-02-26T05:27:33.700Z,99860
2017-02-26T05:28:33.742Z,99859
2017-02-26T05:29:34.574Z,99855
2017-02-26T05:30:33.948Z,99856
2017-02-26T05:31:34.538Z,99849
2017-02-26T05:32:34.032Z,99854
2017-02-26T05:33:34.094Z,99859
2017-02-26T05:34:34.172Z,99857
2017-02-26T05:35:34.998Z,99857
2017-02-26T05:36:34.771Z,99851
2017-02-26T05:37:34.734Z,99850
2017-02-26T05:38:34.831Z,99847
2017-02-26T05:39:34.338Z,99851
2017-02-26T05:40:34.949Z,99848
2017-02-26T05:41:35.288Z,99850
2017-02-26T05:42:34.511Z,99851
2017-02-26T05:43:35.070Z,99852
2017-02-26T05:44:34.554Z,99848
2017-02-26T05:45:34.544Z,99852
2017-02-26T05:46:34.696Z,99853
2017-02-26T05:47:35.548Z,99850
2017-02-26T05:48:34.797Z,99847
2017-02-26T05:49:35.348Z,99856
2017-02-26T05:50:34.912Z,99852
2017-02-26T05:51:34.957Z,99863
2017-02-26T05:52:35.054Z,99845
2017-02-26T05:53:35.800Z,99850
2017-02-26T05:54:35.118Z,99851
2017-02-26T05:55:35.780Z,99849
2017-02-26T05:56:35.256Z,99848
2017-02-26T05:57:35.336Z,99845
2017-02-26T05:58:35.960Z,99835
2017-02-26T05:59:36.258Z,99850
2017-02-26T06:00:35.497Z,99844
2017-02-26T06:01:36.069Z,99842
2017-02-26T06:02:35.555Z,99849
2017-02-26T06:03:36.218Z,99841
2017-02-26T06:04:36.268Z,99839
2017-02-26T06:05:36.523Z,99845
2017-02-26T06:06:36.361Z,99835
2017-02-26T06:07:35.818Z,99838
2017-02-26T06:08:35.907Z,99836
2017-02-26T06:09:35.985Z,99841
2017-02-26T06:10:36.150Z,99844
2017-02-26T06:11:36.393Z,99841
2017-02-26T06:12:36.780Z,99840
2017-02-26T06:13:36.788Z,99848
2017-02-26T06:14:36.926Z,99841
2017-02-26T06:15:36.447Z,99841
2017-02-26T06:16:36.555Z,99844
2017-02-26T06:17:37.458Z,99847
2017-02-26T06:18:36.673Z,99845
2017-02-26T06:19:36.671Z,99844
2017-02-26T06:20:36.772Z,99845
2017-02-26T06:21:36.856Z,99840
2017-02-26T06:22:36.843Z,99845
2017-02-26T06:23:37.079Z,99840
2017-02-26T06:24:36.986Z,99839
2017-02-26T06:25:37.586Z,99833
2017-02-26T06:26:37.616Z,99830
2017-02-26T06:27:37.675Z,99840
2017-02-26T06:28:37.806Z,99843
2017-02-26T06:29:38.006Z,99846
2017-02-26T06:30:37.844Z,99850
2017-02-26T06:31:37.381Z,99852
2017-02-26T06:32:37.362Z,99849
2017-02-26T06:33:38.106Z,99847
2017-02-26T06:34:38.101Z,99853
2017-02-26T06:35:38.331Z,99848
2017-02-26T06:36:37.608Z,99845
2017-02-26T06:37:37.632Z,99847
2017-02-26T06:38:37.701Z,99846
2017-02-26T06:39:37.760Z,99850
2017-02-26T06:40:37.849Z,99851
2017-02-26T06:41:38.591Z,99852
2017-02-26T06:42:38.379Z,99850
2017-02-26T06:43:38.441Z,99857
2017-02-26T06:44:38.472Z,99849
2017-02-26T06:45:38.576Z,99852
2017-02-26T06:46:38.555Z,99851
2017-02-26T06:47:38.819Z,99851
2017-02-26T06:48:38.151Z,99849
2017-02-26T06:49:38.217Z,99850
2017-02-26T06:50:38.205Z,99848
2017-02-26T06:51:38.340Z,99849
2017-02-26T06:52:38.903Z,99855
2017-02-26T06:53:39.142Z,99845
2017-02-26T06:54:38.466Z,99841
2017-02-26T06:55:38.457Z,99843
2017-02-26T06:56:38.508Z,99841
2017-02-26T06:57:38.491Z,99841
2017-02-26T06:58:38.548Z,99838
2017-02-26T06:59:38.740Z,99840
2017-02-26T07:00:39.158Z,99844
2017-02-26T07:01:38.680Z,99847
2017-02-26T07:02:39.276Z,99848
2017-02-26T07:03:39.348Z,99851
2017-02-26T07:04:38.806Z,99849
2017-02-26T07:05:39.627Z,99855
2017-02-26T07:06:39.385Z,99853
2017-02-26T07:07:39.465Z,99853
2017-02-26T07:08:38.899Z,99855
2017-02-26T07:09:39.537Z,99864
2017-02-26T07:10:38.998Z,99867
2017-02-26T07:11:39.778Z,99867
2017-02-26T07:12:39.078Z,99875
2017-02-26T07:13:39.686Z,99878
2017-02-26T07:14:39.712Z,99883
2017-02-26T07:15:39.745Z,99885
2017-02-26T07:16:39.804Z,99885
2017-02-26T07:17:40.173Z,99882
2017-02-26T07:18:39.395Z,99880
2017-02-26T07:19:40.055Z,99880
2017-02-26T07:20:40.069Z,99886
2017-02-26T07:21:40.144Z,99887
2017-02-26T07:22:39.687Z,99888
2017-02-26T07:23:40.465Z,99887
2017-02-26T07:24:39.711Z,99891
2017-02-26T07:25:39.711Z,99892
2017-02-26T07:26:39.697Z,99887
2017-02-26T07:27:39.769Z,99899
2017-02-26T07:28:39.820Z,99894
2017-02-26T07:29:40.649Z,99913
2017-02-26T07:30:40.451Z,99907
2017-02-26T07:31:40.534Z,99911
2017-02-26T07:32:40.583Z,99912
2017-02-26T07:33:40.139Z,99915
2017-02-26T07:34:40.719Z,99914
2017-02-26T07:35:40.940Z,99922
2017-02-26T07:36:40.233Z,99925
2017-02-26T07:37:40.271Z,99924
2017-02-26T07:38:40.274Z,99931
2017-02-26T07:39:40.288Z,99927
2017-02-26T07:40:40.367Z,99925
2017-02-26T07:41:41.085Z,99928
2017-02-26T07:42:40.408Z,99922
2017-02-26T07:43:40.419Z,99920
2017-02-26T07:44:40.441Z,99926
2017-02-26T07:45:40.482Z,99920
2017-02-26T07:46:40.518Z,99924
2017-02-26T07:47:40.682Z,99926
2017-02-26T07:48:40.628Z,99932
2017-02-26T07:49:41.102Z,99927
2017-02-26T07:50:41.158Z,99927
2017-02-26T07:51:41.128Z,99924
2017-02-26T07:52:41.219Z,99924
2017-02-26T07:53:41.496Z,99916
2017-02-26T07:54:40.666Z,99917
2017-02-26T07:55:40.736Z,99916
2017-02-26T07:56:41.273Z,99920
2017-02-26T07:57:41.289Z,99907
2017-02-26T07:58:40.815Z,99910
2017-02-26T07:59:41.025Z,99916
2017-02-26T08:00:41.443Z,99908
2017-02-26T08:01:41.420Z,99922
2017-02-26T08:02:40.930Z,99911
2017-02-26T08:03:40.950Z,99926
2017-02-26T08:04:41.557Z,99911
2017-02-26T08:05:41.925Z,99920
2017-02-26T08:06:41.217Z,99915
2017-02-26T08:07:41.170Z,99919
2017-02-26T08:08:41.715Z,99922
2017-02-26T08:09:41.766Z,99920
2017-02-26T08:10:41.307Z,99915
2017-02-26T08:11:42.080Z,99915
2017-02-26T08:12:41.435Z,99919
2017-02-26T08:13:41.466Z,99916
2017-02-26T08:14:41.533Z,99913
2017-02-26T08:15:41.624Z,99912
2017-02-26T08:16:42.153Z,99911
2017-02-26T08:17:41.998Z,99917
2017-02-26T08:18:42.224Z,99917
2017-02-26T08:19:41.759Z,99916
2017-02-26T08:20:42.428Z,99909
2017-02-26T08:21:41.931Z,99916
2017-02-26T08:22:42.575Z,99922
2017-02-26T08:23:42.611Z,99928
2017-02-26T08:24:42.112Z,99926
2017-02-26T08:25:42.214Z,99931
2017-02-26T08:26:42.259Z,99937
2017-02-26T08:27:42.273Z,99933
2017-02-26T08:28:42.879Z,99935
2017-02-26T08:29:42.331Z,99935
2017-02-26T08:30:42.893Z,99932
2017-02-26T08:31:42.975Z,99945
2017-02-26T08:32:42.983Z,99949
2017-02-26T08:33:43.050Z,99946
2017-02-26T08:34:43.110Z,99949
2017-02-26T08:35:42.604Z,99944
2017-02-26T08:36:42.663Z,99945
2017-02-26T08:37:42.724Z,99942
2017-02-26T08:38:43.267Z,99940
2017-02-26T08:39:43.325Z,99938
2017-02-26T08:40:43.393Z,99935
2017-02-26T08:41:43.023Z,99936
2017-02-26T08:42:43.439Z,99937
2017-02-26T08:43:43.472Z,99937
2017-02-26T08:44:43.566Z,99934
2017-02-26T08:45:43.560Z,99929
2017-02-26T08:46:43.038Z,99942
2017-02-26T08:47:43.291Z,99932
2017-02-26T08:48:43.618Z,99937
2017-02-26T08:49:43.189Z,99930
2017-02-26T08:50:43.212Z,99933
2017-02-26T08:51:43.322Z,99936
2017-02-26T08:52:43.346Z,99929
2017-02-26T08:53:43.712Z,99917
2017-02-26T08:54:43.999Z,99919
2017-02-26T08:55:43.560Z,99928
2017-02-26T08:56:44.160Z,99911
2017-02-26T08:57:43.690Z,99916
2017-02-26T08:58:44.285Z,99907
2017-02-26T08:59:43.995Z,99901
2017-02-26T09:00:44.387Z,99901
2017-02-26T09:01:43.816Z,99899
2017-02-26T09:02:44.371Z,99892
2017-02-26T09:03:44.444Z,99891
2017-02-26T09:04:44.524Z,99888
2017-02-26T09:05:44.232Z,99905
2017-02-26T09:06:44.110Z,99900
2017-02-26T09:07:44.175Z,99914
2017-02-26T09:08:44.773Z,99910
2017-02-26T09:09:44.340Z,99918
2017-02-26T09:10:44.954Z,99924
2017-02-26T09:11:44.538Z,99919
2017-02-26T09:12:44.443Z,99910
2017-02-26T09:13:44.471Z,99905
2017-02-26T09:14:45.046Z,99896
2017-02-26T09:15:44.603Z,99898
2017-02-26T09:16:45.150Z,99897
2017-02-26T09:17:44.890Z,99900
2017-02-26T09:18:44.769Z,99889
2017-02-26T09:19:45.333Z,99888
2017-02-26T09:20:45.366Z,99890
2017-02-26T09:21:44.853Z,99888
2017-02-26T09:22:45.407Z,99896
2017-02-26T09:23:45.641Z,99891
2017-02-26T09:24:44.996Z,99892
2017-02-26T09:25:45.564Z,99896
2017-02-26T09:26:45.615Z,99892
2017-02-26T09:27:45.094Z,99889
2017-02-26T09:28:45.108Z,99901
2017-02-26T09:29:45.795Z,99897
2017-02-26T09:30:45.662Z,99902
2017-02-26T09:31:45.791Z,99912
2017-02-26T09:32:45.813Z,99910
2017-02-26T09:33:45.341Z,99913
2017-02-26T09:34:45.982Z,99915
2017-02-26T09:35:46.186Z,99915
2017-02-26T09:36:46.015Z,99917
2017-02-26T09:37:46.022Z,99917
2017-02-26T09:38:46.049Z,99916
2017-02-26T09:39:46.023Z,99920
2017-02-26T09:40:46.172Z,99920
2017-02-26T09:41:46.331Z,99930
2017-02-26T09:42:45.622Z,99927
2017-02-26T09:43:46.251Z,99928
2017-02-26T09:44:45.730Z,99918
2017-02-26T09:45:45.792Z,99925
2017-02-26T09:46:46.465Z,99924
2017-02-26T09:47:46.619Z,99921
2017-02-26T09:48:45.962Z,99924
2017-02-26T09:49:46.545Z,99922
2017-02-26T09:50:46.064Z,99914
2017-02-26T09:51:46.682Z,99917
2017-02-26T09:52:46.137Z,99920
2017-02-26T09:53:46.324Z,99920
2017-02-26T09:54:46.661Z,99923
2017-02-26T09:55:46.216Z,99924
2017-02-26T09:56:46.797Z,99919
2017-02-26T09:57:46.806Z,99922
2017-02-26T09:58:46.313Z,99928
2017-02-26T09:59:47.107Z,99917
2017-02-26T10:00:46.415Z,99923
2017-02-26T10:01:46.995Z,99920
2017-02-26T10:02:47.077Z,99917
2017-02-26T10:03:47.057Z,99917
2017-02-26T10:04:47.114Z,99914
2017-02-26T10:05:46.832Z,99922
2017-02-26T10:06:47.251Z,99916
2017-02-26T10:07:47.338Z,99919
2017-02-26T10:08:47.333Z,99918
2017-02-26T10:09:47.369Z,99920
2017-02-26T10:10:46.882Z,99911
2017-02-26T10:11:47.550Z,99913
2017-02-26T10:12:46.941Z,99913
2017-02-26T10:13:47.002Z,99913
2017-02-26T10:14:47.605Z,99913
2017-02-26T10:15:47.684Z,99916
2017-02-26T10:16:47.245Z,99916
2017-02-26T10:17:47.458Z,99919
2017-02-26T10:18:47.824Z,99918
2017-02-26T10:19:47.872Z,99912
2017-02-26T10:20:47.371Z,99917
2017-02-26T10:21:47.993Z,99921
2017-02-26T10:22:48.005Z,99920
2017-02-26T10:23:48.167Z,99921
2017-02-26T10:24:48.068Z,99916
2017-02-26T10:25:47.546Z,99927
2017-02-26T10:26:47.567Z,99927
2017-02-26T10:27:47.668Z,99927
2017-02-26T10:28:48.272Z,99928
2017-02-26T10:29:48.496Z,99930
2017-02-26T10:30:47.754Z,99929
2017-02-26T10:31:47.776Z,99929
2017-02-26T10:32:48.407Z,99930
2017-02-26T10:33:48.441Z,99926
2017-02-26T10:34:48.493Z,99931
2017-02-26T10:35:48.752Z,99935
2017-02-26T10:36:48.051Z,99924
2017-02-26T10:37:48.125Z,99929
2017-02-26T10:38:48.623Z,99927
2017-02-26T10:39:48.165Z,99927
2017-02-26T10:40:48.747Z,99926
2017-02-26T10:41:49.031Z,99929
2017-02-26T10:42:48.810Z,99931
2017-02-26T10:43:48.860Z,99934
2017-02-26T10:44:48.899Z,99930
2017-02-26T10:45:48.403Z,99934
2017-02-26T10:46:48.943Z,99935
2017-02-26T10:47:49.324Z,99940
2017-02-26T10:48:48.500Z,99939
2017-02-26T10:49:49.060Z,99930
2017-02-26T10:50:49.144Z,99932
2017-02-26T10:51:49.170Z,99933
2017-02-26T10:52:49.310Z,99930
2017-02-26T10:53:48.883Z,99932
2017-02-26T10:54:49.288Z,99934
2017-02-26T10:55:48.761Z,99934
2017-02-26T10:56:48.834Z,99928
2017-02-26T10:57:49.439Z,99929
2017-02-26T10:58:48.934Z,99929
2017-02-26T10:59:49.620Z,99933
2017-02-26T11:00:49.054Z,99930
2017-02-26T11:01:49.211Z,99927
2017-02-26T11:02:49.872Z,99928
2017-02-26T11:03:49.347Z,99930
2017-02-26T11:04:49.352Z,99932
2017-02-26T11:05:50.029Z,99926
2017-02-26T11:06:49.454Z,99931
2017-02-26T11:07:49.505Z,99932
2017-02-26T11:08:49.515Z,99932
2017-02-26T11:09:49.575Z,99921
2017-02-26T11:10:49.673Z,99927
2017-02-26T11:11:50.259Z,99933
2017-02-26T11:12:49.741Z,99931
2017-02-26T11:13:50.311Z,99931
2017-02-26T11:14:49.751Z,99927
2017-02-26T11:15:49.887Z,99931
2017-02-26T11:16:50.538Z,99932
2017-02-26T11:17:50.544Z,99935
2017-02-26T11:18:50.600Z,99930
2017-02-26T11:19:50.109Z,99929
2017-02-26T11:20:50.775Z,99931
2017-02-26T11:21:50.368Z,99930
2017-02-26T11:22:50.330Z,99933
2017-02-26T11:23:51.006Z,99926
2017-02-26T11:24:50.561Z,99928
2017-02-26T11:25:51.612Z,99929
2017-02-26T11:26:50.640Z,99927
2017-02-26T11:27:51.133Z,99931
2017-02-26T11:28:50.706Z,99930
2017-02-26T11:29:50.676Z,99925
2017-02-26T11:30:51.247Z,99923
2017-02-26T11:31:50.793Z,99927
2017-02-26T11:32:51.489Z,99920
2017-02-26T11:33:50.974Z,99926
2017-02-26T11:34:51.527Z,99927
2017-02-26T11:35:51.031Z,99926
2017-02-26T11:36:51.077Z,99923
2017-02-26T11:37:51.741Z,99925
2017-02-26T11:38:51.745Z,99919
2017-02-26T11:39:51.725Z,99911
2017-02-26T11:40:51.817Z,99911
2017-02-26T11:41:51.806Z,99914
2017-02-26T11:42:51.907Z,99913
2017-02-26T11:43:51.882Z,99911
2017-02-26T11:44:51.972Z,99905
2017-02-26T11:45:52.085Z,99912
2017-02-26T11:46:52.083Z,99905
2017-02-26T11:47:52.185Z,99903
2017-02-26T11:48:51.596Z,99896
2017-02-26T11:49:52.210Z,99896
2017-02-26T11:50:52.146Z,99904
2017-02-26T11:51:51.715Z,99892
2017-02-26T11:52:52.268Z,99892
2017-02-26T11:53:51.829Z,99885
2017-02-26T11:54:51.830Z,99890
2017-02-26T11:55:51.893Z,99886
2017-02-26T11:56:52.459Z,99882
2017-02-26T11:57:52.004Z,99886
2017-02-26T11:58:52.122Z,99884
2017-02-26T11:59:52.189Z,99881
2017-02-26T12:00:52.767Z,99875
2017-02-26T12:01:52.340Z,99882
2017-02-26T12:02:52.945Z,99881
2017-02-26T12:03:52.408Z,99884
2017-02-26T12:04:52.428Z,99875
2017-02-26T12:05:53.092Z,99886
2017-02-26T12:06:52.577Z,99881
2017-02-26T12:07:52.610Z,99875
2017-02-26T12:08:52.701Z,99873
2017-02-26T12:09:52.724Z,99877
2017-02-26T12:10:52.733Z,99887
2017-02-26T12:11:52.722Z,99880
2017-02-26T12:12:53.419Z,99884
2017-02-26T12:13:52.952Z,99882
2017-02-26T12:14:52.970Z,99885
2017-02-26T12:15:53.551Z,99884
2017-02-26T12:16:53.115Z,99878
2017-02-26T12:17:53.190Z,99874
2017-02-26T12:18:53.163Z,99883
2017-02-26T12:19:53.831Z,99880
2017-02-26T12:20:53.364Z,99885
2017-02-26T12:21:53.324Z,99884
2017-02-26T12:22:53.992Z,99880
2017-02-26T12:23:54.055Z,99878
2017-02-26T12:24:54.083Z,99886
2017-02-26T12:25:53.659Z,99883
2017-02-26T12:26:53.788Z,99878
2017-02-26T12:27:53.828Z,99877
2017-02-26T12:28:53.906Z,99880
2017-02-26T12:29:53.988Z,99880
2017-02-26T12:30:54.660Z,99873
2017-02-26T12:31:54.177Z,99867
2017-02-26T12:32:54.331Z,99881
2017-02-26T12:33:54.339Z,99877
2017-02-26T12:34:54.464Z,99882
2017-02-26T12:35:54.503Z,99872
2017-02-26T12:36:54.585Z,99873
2017-02-26T12:37:55.131Z,99872
2017-02-26T12:38:54.689Z,99866
2017-02-26T12:39:54.774Z,99867
2017-02-26T12:40:55.344Z,99864
2017-02-26T12:41:54.911Z,99863
2017-02-26T12:42:54.904Z,99861
2017-02-26T12:43:55.539Z,99861
2017-02-26T12:44:55.067Z,99862
2017-02-26T12:45:55.195Z,99859
2017-02-26T12:46:55.742Z,99864
2017-02-26T12:47:55.284Z,99866